Time;durP1;ratioP1;P1;durP2;ratioP2;P2;SDS_P1;SDS_P2;PMS_P1;PMS_P2;Temp;Humidity;BMP_temperature;BMP_pressure;BME280_temperature;BME280_humidity;BME280_pressure;Samples;Min_cycle;Max_cycle;Signal;HPM_P1;HPM_P2
2021/08/14 00:01:35;;;;;;;11.15;7.40;;;;;;;20.35;79.10;101262.88;5016623;28;20048;-66
2021/08/14 00:04:02;;;;;;;17.55;9.00;;;;;;;20.36;79.16;101261.06;5037560;28;20466;-67
2021/08/14 00:06:30;;;;;;;13.88;8.35;;;;;;;20.40;78.14;101259.81;5040494;28;20137;-68
2021/08/14 00:08:57;;;;;;;14.25;7.53;;;;;;;20.22;78.46;101263.16;5031133;28;20060;-67
2021/08/14 00:11:24;;;;;;;11.85;7.80;;;;;;;20.24;78.78;101268.34;5018807;28;20051;-66
2021/08/14 00:13:51;;;;;;;11.80;7.53;;;;;;;20.31;78.20;101272.19;5009912;28;20478;-67
2021/08/14 00:16:18;;;;;;;8.43;6.32;;;;;;;20.32;77.14;101270.34;5014568;28;20423;-68
2021/08/14 00:18:46;;;;;;;12.80;6.60;;;;;;;20.28;77.42;101266.25;5025797;28;20056;-66
2021/08/14 00:21:13;;;;;;;11.05;7.00;;;;;;;20.33;76.49;101269.38;5031711;28;20050;-66
2021/08/14 00:23:44;;;;;;;9.32;6.85;;;;;;;20.29;76.25;101274.13;5015108;28;20149;-66
2021/08/14 00:26:11;;;;;;;8.82;6.20;;;;;;;20.27;76.15;101276.13;5030227;28;20045;-68
2021/08/14 00:28:40;;;;;;;8.68;5.95;;;;;;;20.21;76.13;101282.00;5036683;28;20048;-67
2021/08/14 00:31:07;;;;;;;11.45;6.82;;;;;;;20.19;75.88;101275.94;5031488;28;20045;-67
2021/08/14 00:33:35;;;;;;;7.72;6.28;;;;;;;20.22;75.42;101287.22;5031952;28;20072;-67
2021/08/14 00:36:02;;;;;;;19.27;7.13;;;;;;;20.28;74.94;101279.63;5040474;28;20051;-68
2021/08/14 00:38:30;;;;;;;14.82;7.40;;;;;;;20.19;75.12;101276.78;5034739;28;20510;-67
2021/08/14 00:40:57;;;;;;;10.35;5.85;;;;;;;20.20;74.96;101278.47;5016417;28;20045;-67
2021/08/14 00:43:24;;;;;;;10.80;6.30;;;;;;;20.09;75.62;101278.59;5023397;28;20045;-67
2021/08/14 00:45:51;;;;;;;11.73;6.22;;;;;;;20.17;74.72;101278.78;5013510;28;20161;-67
2021/08/14 00:48:34;;;;;;;9.93;6.35;;;;;;;19.97;75.22;101279.69;5004517;28;20151;-68
2021/08/14 00:51:02;;;;;;;10.32;5.90;;;;;;;20.02;74.83;101277.44;5031963;28;20046;-67
2021/08/14 00:53:29;;;;;;;9.20;6.15;;;;;;;20.03;74.65;101281.78;5000949;28;20053;-68
2021/08/14 00:55:56;;;;;;;11.32;6.38;;;;;;;20.00;74.53;101283.91;4998217;28;20152;-68
2021/08/14 00:58:23;;;;;;;15.27;6.72;;;;;;;19.95;73.65;101279.81;5016059;28;20500;-68
2021/08/14 01:00:51;;;;;;;9.23;5.93;;;;;;;19.96;73.38;101283.34;5012694;28;20145;-67
2021/08/14 01:03:19;;;;;;;11.77;5.75;;;;;;;19.83;74.05;101288.06;4992801;28;20068;-67
2021/08/14 01:05:46;;;;;;;10.82;5.53;;;;;;;19.74;73.95;101281.69;5020327;28;20132;-67
2021/08/14 01:08:15;;;;;;;6.82;5.38;;;;;;;19.69;74.22;101289.25;5035557;28;20053;-67
2021/08/14 01:10:43;;;;;;;10.32;5.93;;;;;;;19.68;74.43;101292.94;5028696;28;20135;-67
2021/08/14 01:13:10;;;;;;;10.48;5.40;;;;;;;19.55;75.11;101292.25;5009511;28;20084;-68
2021/08/14 01:15:50;;;;;;;11.18;6.20;;;;;;;19.49;74.92;101293.59;5012508;28;20088;-68
2021/08/14 01:18:18;;;;;;;14.05;5.95;;;;;;;19.44;75.03;101294.00;5032674;28;20048;-67
2021/08/14 01:20:46;;;;;;;9.15;5.82;;;;;;;19.27;75.95;101286.59;5029268;28;20051;-69
2021/08/14 01:23:13;;;;;;;9.30;5.90;;;;;;;19.29;75.81;101292.66;5030941;28;20232;-66
2021/08/14 01:25:42;;;;;;;8.70;4.75;;;;;;;19.06;77.02;101301.78;5029953;28;20057;-66
2021/08/14 01:28:10;;;;;;;16.02;6.05;;;;;;;19.06;76.62;101299.94;5007971;28;20485;-67
2021/08/14 01:30:41;;;;;;;11.40;5.88;;;;;;;18.96;77.12;101299.88;5005300;28;20459;-67
2021/08/14 01:33:12;;;;;;;8.57;5.30;;;;;;;18.91;77.83;101299.41;4990611;28;20056;-67
2021/08/14 01:35:44;;;;;;;10.02;5.63;;;;;;;18.85;78.25;101302.56;5006397;28;20049;-66
2021/08/14 01:38:11;;;;;;;8.05;5.70;;;;;;;18.74;79.51;101309.78;5030794;28;20056;-70
2021/08/14 01:40:38;;;;;;;10.25;5.60;;;;;;;18.73;79.70;101308.91;5026704;28;20124;-67
2021/08/14 01:43:07;;;;;;;11.82;5.88;;;;;;;18.63;80.69;101313.28;5022836;28;20052;-67
2021/08/14 01:45:34;;;;;;;12.30;6.20;;;;;;;18.43;81.87;101315.75;5016133;28;20532;-67
2021/08/14 01:48:02;;;;;;;9.00;5.95;;;;;;;18.48;82.79;101318.91;5007942;28;20060;-67
2021/08/14 01:50:29;;;;;;;10.13;5.85;;;;;;;18.35;83.43;101315.53;5035718;28;20080;-68
2021/08/14 01:52:56;;;;;;;10.30;5.95;;;;;;;18.34;83.69;101313.00;5019281;28;20144;-69
2021/08/14 01:55:25;;;;;;;11.15;6.63;;;;;;;18.39;83.93;101306.31;5004663;28;20069;-66
2021/08/14 01:57:52;;;;;;;9.48;6.03;;;;;;;18.37;84.58;101320.72;5011423;28;20036;-66
2021/08/14 02:00:19;;;;;;;9.63;6.40;;;;;;;18.20;85.52;101308.78;5031875;28;20084;-67
2021/08/14 02:02:46;;;;;;;12.40;6.80;;;;;;;18.24;85.53;101320.91;5007488;28;20036;-68
2021/08/14 02:05:14;;;;;;;9.82;7.15;;;;;;;18.18;86.22;101322.22;5031761;28;20112;-67
2021/08/14 02:07:41;;;;;;;9.48;7.10;;;;;;;18.25;85.90;101311.91;5022856;28;20045;-68
2021/08/14 02:10:09;;;;;;;8.40;6.55;;;;;;;18.36;85.25;101313.72;5039981;28;20410;-68
2021/08/14 02:12:37;;;;;;;11.27;7.43;;;;;;;18.30;85.26;101314.22;5027596;28;20073;-67
2021/08/14 02:15:05;;;;;;;9.52;5.85;;;;;;;18.23;85.30;101314.69;5016846;28;20049;-66
2021/08/14 02:17:32;;;;;;;8.80;6.40;;;;;;;18.28;83.78;101310.81;5028437;28;20116;-69
2021/08/14 02:19:59;;;;;;;10.57;5.53;;;;;;;18.22;82.85;101314.81;5043386;28;20049;-69
2021/08/14 02:22:26;;;;;;;9.15;6.03;;;;;;;18.11;82.95;101309.53;5016902;28;20069;-68
2021/08/14 02:24:53;;;;;;;10.48;5.40;;;;;;;18.28;81.84;101310.81;5043065;28;20410;-67
2021/08/14 02:27:21;;;;;;;10.40;5.93;;;;;;;18.17;82.24;101311.69;5026014;28;20064;-67
2021/08/14 02:29:48;;;;;;;8.75;5.18;;;;;;;18.08;82.44;101317.75;5032827;28;20127;-66
2021/08/14 02:32:15;;;;;;;11.25;5.85;;;;;;;18.21;82.19;101316.63;5028122;28;20078;-69
2021/08/14 02:34:42;;;;;;;12.73;5.32;;;;;;;18.14;82.21;101314.59;5035357;28;20140;-68
2021/08/14 02:37:09;;;;;;;11.32;5.50;;;;;;;18.19;81.65;101307.06;5017407;28;20060;-67
2021/08/14 02:39:36;;;;;;;13.48;5.00;;;;;;;18.30;81.08;101316.88;5025072;28;20140;-67
2021/08/14 02:42:04;;;;;;;17.02;5.90;;;;;;;18.37;80.83;101323.41;5029051;28;20528;-67
2021/08/14 02:44:31;;;;;;;10.55;6.15;;;;;;;18.36;80.48;101325.22;5022519;28;20068;-69
2021/08/14 02:46:58;;;;;;;8.52;5.47;;;;;;;18.29;80.73;101317.84;5023658;28;20114;-67
2021/08/14 02:49:25;;;;;;;16.65;6.13;;;;;;;18.31;80.58;101318.56;5020219;28;20152;-68
2021/08/14 02:51:53;;;;;;;12.75;5.95;;;;;;;18.32;80.28;101318.44;5010999;28;20049;-67
2021/08/14 02:54:20;;;;;;;13.77;6.13;;;;;;;18.28;80.66;101322.34;5031606;28;20151;-68
2021/08/14 02:56:47;;;;;;;13.13;6.32;;;;;;;18.39;80.08;101324.13;5034088;28;20131;-66
2021/08/14 02:59:14;;;;;;;13.10;5.93;;;;;;;18.47;80.22;101313.69;5030083;28;20076;-68
2021/08/14 03:01:41;;;;;;;10.80;6.15;;;;;;;18.51;80.46;101319.59;5030581;28;20424;-66
2021/08/14 03:04:09;;;;;;;12.23;6.35;;;;;;;18.49;80.29;101309.06;5025346;28;20092;-68
2021/08/14 03:06:36;;;;;;;12.68;6.45;;;;;;;18.40;81.01;101315.16;4998571;28;20119;-66
2021/08/14 03:09:05;;;;;;;9.23;5.45;;;;;;;18.47;80.99;101311.88;5032786;28;20099;-67
2021/08/14 03:11:32;;;;;;;14.05;6.15;;;;;;;18.46;81.25;101317.31;5030407;28;20080;-67
2021/08/14 03:13:59;;;;;;;14.85;6.88;;;;;;;18.55;80.98;101318.38;5033575;28;20145;-65
2021/08/14 03:16:27;;;;;;;10.93;6.07;;;;;;;18.47;80.76;101316.38;5028932;28;20100;-68
2021/08/14 03:18:54;;;;;;;10.68;5.88;;;;;;;18.48;80.72;101320.72;5008164;28;20053;-67
2021/08/14 03:21:21;;;;;;;17.30;6.55;;;;;;;18.42;81.02;101314.06;5038066;28;20068;-69
2021/08/14 03:23:48;;;;;;;15.18;6.47;;;;;;;18.53;80.36;101312.34;5032852;28;20132;-69
2021/08/14 03:26:16;;;;;;;7.65;5.57;;;;;;;18.48;80.22;101321.56;5025213;28;20050;-65
2021/08/14 03:28:43;;;;;;;15.05;6.43;;;;;;;18.39;80.16;101322.31;5030970;28;20053;-67
2021/08/14 03:31:10;;;;;;;8.73;5.63;;;;;;;18.37;80.30;101326.94;5035494;28;20140;-69
2021/08/14 03:33:37;;;;;;;10.13;4.95;;;;;;;18.43;80.19;101334.44;5036399;28;20095;-67
2021/08/14 03:36:04;;;;;;;12.52;5.90;;;;;;;18.41;79.95;101330.19;5015613;28;20144;-68
2021/08/14 03:38:32;;;;;;;11.85;5.40;;;;;;;18.35;80.02;101328.00;5027445;28;20131;-65
2021/08/14 03:40:59;;;;;;;13.35;5.75;;;;;;;18.37;80.01;101331.38;5041956;28;20530;-64
2021/08/14 03:43:26;;;;;;;10.10;5.47;;;;;;;18.43;79.96;101334.44;5017506;28;20577;-64
2021/08/14 03:45:54;;;;;;;11.45;5.35;;;;;;;18.38;79.95;101336.63;5023283;28;20083;-66
2021/08/14 03:48:21;;;;;;;11.70;5.13;;;;;;;18.34;79.99;101335.16;5015779;28;20050;-65
2021/08/14 03:50:48;;;;;;;9.65;5.43;;;;;;;18.23;80.40;101335.16;5037826;28;20505;-64
2021/08/14 03:53:16;;;;;;;15.98;6.10;;;;;;;18.28;80.18;101327.69;5019720;28;20130;-65
2021/08/14 03:55:44;;;;;;;10.35;5.53;;;;;;;18.23;80.17;101333.34;5034142;28;20136;-64
2021/08/14 03:58:11;;;;;;;9.50;4.90;;;;;;;18.36;80.13;101327.03;5003910;28;20491;-64
2021/08/14 04:00:38;;;;;;;12.93;5.60;;;;;;;18.26;79.88;101329.59;5020407;28;20139;-66
2021/08/14 04:03:05;;;;;;;16.75;5.07;;;;;;;18.39;79.48;101334.81;5012275;28;20568;-65
2021/08/14 04:05:33;;;;;;;10.40;5.68;;;;;;;18.38;79.11;101339.28;5004908;28;20128;-63
2021/08/14 04:08:00;;;;;;;14.73;5.10;;;;;;;18.40;78.94;101336.47;5023788;28;20065;-65
2021/08/14 04:10:27;;;;;;;12.48;5.05;;;;;;;18.28;78.95;101348.13;5050453;28;20053;-63
2021/08/14 04:12:55;;;;;;;19.05;5.25;;;;;;;18.18;79.92;101343.53;5018737;28;20138;-64
2021/08/14 04:15:22;;;;;;;12.23;4.90;;;;;;;18.26;79.04;101344.75;5032125;28;20136;-65
2021/08/14 04:17:49;;;;;;;12.38;5.13;;;;;;;18.26;78.73;101348.25;5011492;28;20141;-65
2021/08/14 04:20:16;;;;;;;12.90;4.72;;;;;;;18.16;79.35;101342.81;5034321;28;20077;-65
2021/08/14 04:22:43;;;;;;;11.15;5.05;;;;;;;18.22;78.93;101342.31;5032296;28;20059;-64
2021/08/14 04:25:11;;;;;;;9.57;4.68;;;;;;;18.25;78.82;101348.38;5039405;28;20232;-64
2021/08/14 04:27:38;;;;;;;14.48;5.57;;;;;;;18.11;79.19;101349.47;5014426;28;20136;-64
2021/08/14 04:30:05;;;;;;;17.92;5.55;;;;;;;18.08;79.86;101349.72;5019519;28;20670;-65
2021/08/14 04:32:36;;;;;;;15.05;5.05;;;;;;;17.95;80.39;101348.00;5025299;28;20718;-65
2021/08/14 04:35:05;;;;;;;18.85;5.60;;;;;;;18.03;79.76;101355.41;5004127;28;20053;-65
2021/08/14 04:37:33;;;;;;;13.65;5.10;;;;;;;18.07;79.66;101353.34;5041259;28;20128;-65
2021/08/14 04:40:00;;;;;;;13.77;5.00;;;;;;;18.23;79.25;101353.81;5023671;28;20140;-66
2021/08/14 04:42:32;;;;;;;15.57;4.63;;;;;;;18.38;78.33;101365.09;5031574;28;20277;-64
2021/08/14 04:44:59;;;;;;;14.02;4.72;;;;;;;18.57;76.97;101370.63;5032594;28;20064;-64
2021/08/14 04:47:27;;;;;;;14.93;4.28;;;;;;;18.84;75.56;101372.06;5032527;28;20045;-64
2021/08/14 04:49:54;;;;;;;15.68;4.97;;;;;;;19.66;72.23;101354.47;5017345;28;20140;-65
2021/08/14 04:52:21;;;;;;;13.15;4.57;;;;;;;20.88;67.29;101358.88;5027391;28;20053;-65
2021/08/14 04:54:48;;;;;;;17.38;5.30;;;;;;;21.73;62.36;101343.91;5040095;28;20399;-65
2021/08/14 04:57:16;;;;;;;19.33;4.32;;;;;;;22.12;60.34;101343.81;5028573;28;20723;-66
2021/08/14 04:59:43;;;;;;;18.38;4.97;;;;;;;22.92;57.84;101352.94;5040029;28;20049;-65
2021/08/14 05:02:10;;;;;;;20.23;5.50;;;;;;;23.31;56.48;101347.25;5031024;28;20064;-65
2021/08/14 05:04:38;;;;;;;13.05;4.45;;;;;;;22.40;57.95;101353.53;5037356;28;20397;-64
2021/08/14 05:07:05;;;;;;;10.02;4.10;;;;;;;22.84;56.94;101352.84;5023749;28;20514;-65
2021/08/14 05:09:35;;;;;;;17.35;4.40;;;;;;;23.62;54.31;101345.78;5040795;28;20032;-65
2021/08/14 05:12:04;;;;;;;12.55;4.13;;;;;;;24.11;53.78;101337.19;5027690;28;20706;-65
2021/08/14 05:14:31;;;;;;;11.32;4.50;;;;;;;24.76;51.04;101343.63;5013825;28;20049;-66
2021/08/14 05:16:58;;;;;;;19.77;5.55;;;;;;;24.57;51.54;101341.25;5024876;28;20089;-66
2021/08/14 05:19:25;;;;;;;11.52;4.30;;;;;;;24.73;50.58;101344.00;5028247;28;20092;-65
2021/08/14 05:21:52;;;;;;;14.43;5.00;;;;;;;25.40;49.06;101345.75;5034589;28;20053;-65
2021/08/14 05:24:20;;;;;;;15.63;4.88;;;;;;;26.23;45.85;101338.13;5034550;28;20073;-64
2021/08/14 05:26:47;;;;;;;16.75;4.35;;;;;;;26.44;45.30;101340.28;5038665;28;20136;-65
2021/08/14 05:29:14;;;;;;;14.90;4.60;;;;;;;26.12;46.46;101345.78;5028792;28;20088;-65
2021/08/14 05:31:41;;;;;;;11.18;3.90;;;;;;;26.39;45.71;101347.19;5011124;28;20148;-65
2021/08/14 05:34:08;;;;;;;11.45;3.60;;;;;;;26.02;46.92;101338.72;5035536;28;20437;-65
2021/08/14 05:36:35;;;;;;;16.67;4.82;;;;;;;25.00;49.30;101339.31;5025678;28;20157;-65
2021/08/14 05:39:03;;;;;;;13.95;4.63;;;;;;;24.77;49.40;101347.19;5007484;28;20073;-65
2021/08/14 05:41:31;;;;;;;12.13;3.67;;;;;;;24.23;51.47;101347.50;5027461;28;20067;-67
2021/08/14 05:43:58;;;;;;;11.73;4.13;;;;;;;24.44;50.14;101351.63;5030163;28;20053;-65
2021/08/14 05:46:25;;;;;;;13.30;4.88;;;;;;;23.82;51.97;101361.72;5036439;28;20516;-64
2021/08/14 05:48:53;;;;;;;13.82;4.75;;;;;;;24.08;51.17;101365.25;5031754;28;20460;-65
2021/08/14 05:51:20;;;;;;;15.65;4.53;;;;;;;24.24;50.89;101364.50;5033458;28;20060;-66
2021/08/14 05:53:47;;;;;;;14.23;4.63;;;;;;;24.76;49.80;101364.34;5032200;28;20426;-64
2021/08/14 05:56:14;;;;;;;14.60;4.28;;;;;;;25.45;48.01;101360.41;5039003;28;20073;-64
2021/08/14 05:58:41;;;;;;;12.73;4.13;;;;;;;26.40;46.20;101374.00;5041754;28;20113;-65
2021/08/14 06:01:09;;;;;;;20.10;5.20;;;;;;;27.52;43.38;101379.88;5023042;28;20073;-67
2021/08/14 06:03:38;;;;;;;9.88;3.30;;;;;;;28.63;41.44;101376.28;5024703;28;20060;-65
2021/08/14 06:06:08;;;;;;;16.63;4.57;;;;;;;29.23;39.32;101382.38;5029650;28;20172;-65
2021/08/14 06:08:35;;;;;;;13.82;4.78;;;;;;;29.16;39.12;101379.56;5016548;28;20078;-65
2021/08/14 06:11:03;;;;;;;10.50;4.85;;;;;;;29.81;38.46;101382.19;5036197;28;20522;-66
2021/08/14 06:13:30;;;;;;;11.48;4.55;;;;;;;30.91;35.96;101379.41;5023662;28;20060;-65
2021/08/14 06:15:57;;;;;;;12.10;5.07;;;;;;;32.48;33.25;101362.31;5030591;28;20128;-64
2021/08/14 06:18:25;;;;;;;12.50;5.10;;;;;;;32.24;32.95;101357.56;5031429;28;20056;-65
2021/08/14 06:20:52;;;;;;;11.73;4.55;;;;;;;29.24;38.06;101360.47;5033359;28;20049;-66
2021/08/14 06:23:19;;;;;;;10.68;4.18;;;;;;;28.30;40.72;101361.47;5021595;28;20175;-65
2021/08/14 06:25:46;;;;;;;10.50;4.90;;;;;;;27.02;43.45;101367.78;5025920;28;20530;-66
2021/08/14 06:28:14;;;;;;;11.25;5.43;;;;;;;26.43;45.35;101375.50;5024842;28;20069;-65
2021/08/14 06:30:41;;;;;;;10.60;5.35;;;;;;;25.52;47.78;101374.03;5029675;28;20047;-67
2021/08/14 06:33:08;;;;;;;8.23;4.70;;;;;;;25.47;48.13;101362.91;5025854;28;20083;-65
2021/08/14 06:35:35;;;;;;;10.07;4.30;;;;;;;25.55;48.32;101362.06;5033843;28;20422;-64
2021/08/14 06:38:03;;;;;;;9.63;4.60;;;;;;;25.79;47.83;101353.97;5029794;28;20116;-64
2021/08/14 06:40:30;;;;;;;14.32;5.22;;;;;;;26.91;44.29;101357.38;5037672;28;20053;-66
2021/08/14 06:42:57;;;;;;;13.45;4.38;;;;;;;27.23;43.40;101353.59;5008187;28;20456;-65
2021/08/14 06:45:24;;;;;;;14.38;4.93;;;;;;;28.91;40.36;101359.25;5034865;28;20049;-66
2021/08/14 06:47:52;;;;;;;15.88;5.35;;;;;;;29.47;38.34;101354.81;5000185;28;20053;-65
2021/08/14 06:50:20;;;;;;;12.60;3.80;;;;;;;28.92;39.85;101358.25;5020478;28;20072;-64
2021/08/14 06:52:47;;;;;;;12.57;4.50;;;;;;;30.44;36.83;101370.28;5001776;28;20045;-65
2021/08/14 06:55:15;;;;;;;15.98;4.57;;;;;;;32.61;33.13;101355.97;5013002;28;20048;-65
2021/08/14 06:57:42;;;;;;;15.20;3.95;;;;;;;33.52;30.81;101357.44;5016550;28;20444;-68
2021/08/14 07:00:10;;;;;;;18.70;4.28;;;;;;;33.67;30.71;101357.91;5031838;28;20412;-66
2021/08/14 07:02:40;;;;;;;10.80;4.35;;;;;;;32.56;31.89;101354.94;5025013;28;20106;-65
2021/08/14 07:05:08;;;;;;;11.90;4.68;;;;;;;31.35;34.22;101363.59;5013965;28;20456;-66
2021/08/14 07:07:36;;;;;;;9.85;4.25;;;;;;;29.60;36.97;101370.38;5024897;28;20657;-65
2021/08/14 07:10:04;;;;;;;20.20;8.35;;;;;;;28.93;38.70;101365.34;5033616;28;20136;-66
2021/08/14 07:12:31;;;;;;;12.13;4.50;;;;;;;29.21;38.27;101362.72;5025854;28;20132;-66
2021/08/14 07:14:59;;;;;;;11.32;4.20;;;;;;;28.93;38.53;101359.94;5030481;28;20137;-63
2021/08/14 07:17:27;;;;;;;13.48;4.65;;;;;;;28.74;39.01;101367.66;5035271;28;20073;-66
2021/08/14 07:19:54;;;;;;;8.32;4.18;;;;;;;28.92;38.94;101364.50;5023384;28;20130;-66
2021/08/14 07:22:21;;;;;;;7.78;4.63;;;;;;;29.33;38.09;101363.88;5022100;28;20095;-66
2021/08/14 07:24:48;;;;;;;9.48;4.10;;;;;;;29.68;37.26;101372.13;5025820;28;20546;-67
2021/08/14 07:27:16;;;;;;;9.05;3.53;;;;;;;30.16;36.20;101364.06;5000193;28;20603;-66
2021/08/14 07:29:43;;;;;;;19.20;4.53;;;;;;;30.12;36.29;101366.31;5013680;28;20109;-67
2021/08/14 07:32:11;;;;;;;10.18;4.47;;;;;;;29.86;36.24;101368.91;5005987;28;20045;-66
2021/08/14 07:34:40;;;;;;;9.55;4.13;;;;;;;29.95;36.32;101357.69;5010606;28;20047;-65
2021/08/14 07:37:08;;;;;;;9.48;3.83;;;;;;;31.12;34.41;101372.13;5019225;28;20050;-65
2021/08/14 07:39:35;;;;;;;8.25;3.30;;;;;;;33.14;31.08;101369.25;5022883;28;20045;-65
2021/08/14 07:42:02;;;;;;;9.05;4.15;;;;;;;32.91;30.72;101374.47;4998894;28;20038;-64
2021/08/14 07:44:29;;;;;;;8.60;3.65;;;;;;;33.42;30.22;101371.56;5002493;28;20503;-66
2021/08/14 07:47:13;;;;;;;10.00;3.78;;;;;;;34.21;28.87;101374.56;5038339;28;20475;-65
2021/08/14 07:49:41;;;;;;;11.60;3.92;;;;;;;35.11;27.15;101376.53;5034545;28;20175;-66
2021/08/14 07:52:08;;;;;;;7.93;3.70;;;;;;;33.67;28.75;101371.56;5024125;28;20053;-65
2021/08/14 07:54:35;;;;;;;11.25;3.60;;;;;;;36.03;26.09;101370.50;5022768;28;20045;-66
2021/08/14 07:57:03;;;;;;;8.43;4.00;;;;;;;36.07;25.38;101360.72;5024145;28;20140;-66
2021/08/14 07:59:30;;;;;;;9.77;3.83;;;;;;;35.46;26.84;101368.38;5034150;28;20052;-66
2021/08/14 08:01:57;;;;;;;8.15;3.90;;;;;;;35.93;26.21;101360.97;5011412;28;20053;-66
2021/08/14 08:04:25;;;;;;;6.78;3.75;;;;;;;36.83;24.36;101366.91;5037145;28;20080;-66
2021/08/14 08:06:52;;;;;;;9.82;3.90;;;;;;;37.50;23.31;101365.06;5032705;28;20424;-66
2021/08/14 08:09:19;;;;;;;11.45;3.58;;;;;;;34.47;26.69;101355.13;5025315;28;20558;-65
2021/08/14 08:11:47;;;;;;;6.72;3.25;;;;;;;34.33;27.38;101355.53;5043061;28;20520;-65
2021/08/14 08:14:14;;;;;;;10.02;4.07;;;;;;;33.71;27.61;101345.47;5021720;28;20083;-65
2021/08/14 08:16:41;;;;;;;10.40;4.25;;;;;;;31.98;30.47;101351.16;5024559;28;20060;-65
2021/08/14 08:19:08;;;;;;;9.10;3.95;;;;;;;31.82;30.53;101346.16;5019031;28;20145;-65
2021/08/14 08:21:36;;;;;;;11.48;4.20;;;;;;;34.09;27.46;101341.75;5021823;28;20549;-66
2021/08/14 08:24:03;;;;;;;10.07;3.63;;;;;;;32.22;30.03;101344.16;5005495;28;20176;-65
2021/08/14 08:26:32;;;;;;;9.25;3.30;;;;;;;31.66;31.41;101338.44;5006849;28;20065;-66
2021/08/14 08:28:59;;;;;;;7.38;2.92;;;;;;;32.24;30.21;101335.75;5032433;28;20053;-67
2021/08/14 08:31:27;;;;;;;8.82;3.22;;;;;;;33.21;29.30;101331.84;5039310;28;20104;-65
2021/08/14 08:33:54;;;;;;;9.65;3.00;;;;;;;32.77;28.88;101328.16;5015267;28;20400;-67
2021/08/14 08:36:21;;;;;;;10.13;4.45;;;;;;;33.84;27.74;101327.28;5027776;28;20069;-64
2021/08/14 08:38:49;;;;;;;15.82;4.40;;;;;;;33.67;27.88;101330.59;5008848;28;20136;-66
2021/08/14 08:41:17;;;;;;;11.93;3.70;;;;;;;32.62;29.53;101324.09;5024915;28;20124;-65
2021/08/14 08:43:44;;;;;;;8.85;4.28;;;;;;;30.73;32.31;101327.53;5020055;28;20137;-65
2021/08/14 08:46:12;;;;;;;10.73;4.05;;;;;;;29.15;35.05;101320.97;5003245;28;20048;-66
2021/08/14 08:48:43;;;;;;;9.48;3.35;;;;;;;28.61;36.52;101317.91;4988774;28;20065;-65
2021/08/14 08:51:11;;;;;;;11.25;3.33;;;;;;;27.97;37.59;101313.16;5025742;28;20057;-64
2021/08/14 08:53:38;;;;;;;15.48;3.70;;;;;;;27.61;37.59;101304.91;5033200;28;20128;-65
2021/08/14 08:56:05;;;;;;;8.77;3.45;;;;;;;26.82;38.47;101312.50;5029124;28;20128;-64
2021/08/14 08:58:34;;;;;;;10.13;3.35;;;;;;;26.26;40.04;101315.38;5033361;28;20145;-66
2021/08/14 09:01:02;;;;;;;11.10;3.78;;;;;;;26.15;40.47;101319.28;5023516;28;20465;-66
2021/08/14 09:03:30;;;;;;;8.60;3.65;;;;;;;25.75;41.11;101309.44;5033032;28;20053;-65
2021/08/14 09:05:58;;;;;;;10.45;3.33;;;;;;;25.37;42.38;101316.44;5003866;28;20073;-67
2021/08/14 09:08:25;;;;;;;10.85;3.38;;;;;;;24.95;42.62;101317.44;5025631;28;20049;-64
2021/08/14 09:11:13;;;;;;;7.63;2.90;;;;;;;25.00;43.12;101310.53;5027517;28;20144;-67
2021/08/14 09:14:02;;;;;;;10.18;2.97;;;;;;;25.14;43.07;101310.91;5029039;28;20712;-65
2021/08/14 09:16:29;;;;;;;12.52;3.33;;;;;;;25.14;43.17;101306.34;5016817;28;20145;-66
2021/08/14 09:19:00;;;;;;;8.52;3.28;;;;;;;25.38;42.57;101299.25;5035149;28;20068;-66
2021/08/14 09:21:30;;;;;;;8.18;3.72;;;;;;;26.22;40.35;101309.47;5032336;28;20050;-67
2021/08/14 09:23:57;;;;;;;8.07;3.17;;;;;;;26.11;40.54;101306.31;4984700;28;20076;-64
2021/08/14 09:26:24;;;;;;;11.38;3.10;;;;;;;25.71;40.95;101300.00;5025947;28;20124;-68
2021/08/14 09:29:03;;;;;;;10.70;3.42;;;;;;;25.85;40.81;101304.75;5003103;28;20033;-66
2021/08/14 09:31:49;;;;;;;9.32;3.33;;;;;;;25.68;41.44;101290.44;5026506;28;20053;-66
2021/08/14 09:34:17;;;;;;;13.20;3.83;;;;;;;25.21;41.56;101301.09;5020584;28;20069;-67
2021/08/14 09:36:58;;;;;;;9.98;3.63;;;;;;;26.16;40.84;101299.38;5010343;28;20080;-65
2021/08/14 09:39:26;;;;;;;12.10;4.32;;;;;;;26.51;40.11;101294.47;5033829;22;20058;-68
2021/08/14 09:42:02;;;;;;;14.15;5.07;;;;;;;26.82;39.56;101291.75;4986055;28;20144;-67
2021/08/14 09:44:29;;;;;;;7.53;3.63;;;;;;;26.85;39.57;101294.09;4992008;28;20045;-68
2021/08/14 09:46:56;;;;;;;8.75;3.22;;;;;;;27.50;38.37;101280.00;4993136;28;20080;-69
2021/08/14 09:49:24;;;;;;;10.85;3.80;;;;;;;26.82;38.83;101282.78;4994040;28;20112;-68
2021/08/14 09:51:51;;;;;;;8.15;3.97;;;;;;;27.15;38.19;101286.09;5031779;28;20080;-68
2021/08/14 09:54:18;;;;;;;11.23;3.40;;;;;;;27.15;38.58;101292.31;4991939;28;20140;-68
2021/08/14 09:56:45;;;;;;;11.13;3.67;;;;;;;27.33;38.35;101277.63;5022952;28;20655;-68
2021/08/14 09:59:14;;;;;;;8.07;3.08;;;;;;;27.19;38.87;101277.44;5011890;28;20053;-68
2021/08/14 10:01:42;;;;;;;12.20;3.42;;;;;;;27.06;38.63;101281.75;4985123;28;20045;-68
2021/08/14 10:04:10;;;;;;;6.28;2.95;;;;;;;26.93;39.05;101287.78;5010982;28;20050;-69
2021/08/14 10:06:39;;;;;;;7.43;3.20;;;;;;;27.13;38.72;101283.56;4999509;28;20089;-68
2021/08/14 10:09:06;;;;;;;8.95;3.78;;;;;;;27.11;38.28;101274.81;5009413;28;20068;-68
2021/08/14 10:11:34;;;;;;;12.63;3.33;;;;;;;26.79;39.33;101277.75;4982455;28;20144;-69
2021/08/14 10:14:02;;;;;;;10.35;3.40;;;;;;;26.02;40.66;101270.44;5006543;28;20059;-67
2021/08/14 10:16:30;;;;;;;12.38;2.90;;;;;;;25.81;41.69;101276.44;4991798;28;20076;-68
2021/08/14 10:18:58;;;;;;;12.07;3.72;;;;;;;25.87;42.10;101269.50;5008077;28;20141;-68
2021/08/14 10:21:26;;;;;;;8.18;3.05;;;;;;;25.60;42.41;101268.03;5024980;28;20041;-69
2021/08/14 10:23:55;;;;;;;7.43;3.70;;;;;;;25.35;42.28;101268.09;5027771;28;20056;-67
2021/08/14 10:26:27;;;;;;;8.27;3.53;;;;;;;25.52;42.60;101258.94;5038260;28;20132;-67
2021/08/14 10:28:56;;;;;;;11.95;3.80;;;;;;;25.61;41.58;101254.38;5006824;28;20534;-68
2021/08/14 10:31:29;;;;;;;8.23;3.92;;;;;;;25.29;42.21;101241.81;4990426;28;20463;-67
2021/08/14 10:34:11;;;;;;;9.32;3.88;;;;;;;25.37;42.76;101249.06;5020731;28;20135;-68
2021/08/14 10:36:40;;;;;;;10.55;3.92;;;;;;;25.59;42.64;101245.63;5035138;28;20080;-68
2021/08/14 10:39:21;;;;;;;7.30;3.53;;;;;;;25.69;42.26;101242.72;5012856;28;20084;-68
2021/08/14 10:41:51;;;;;;;9.30;3.38;;;;;;;25.88;41.73;101245.03;5020249;28;20184;-67
2021/08/14 10:44:40;;;;;;;8.65;3.03;;;;;;;26.11;41.38;101233.44;4995935;28;20049;-68
2021/08/14 10:47:32;;;;;;;7.75;3.38;;;;;;;25.88;41.91;101228.00;5022037;28;20057;-69
2021/08/14 10:49:59;;;;;;;8.35;3.55;;;;;;;25.45;41.98;101224.78;5035086;28;20451;-68
2021/08/14 10:52:31;;;;;;;7.03;2.80;;;;;;;25.54;41.94;101228.28;5024670;28;20586;-67
2021/08/14 10:55:00;;;;;;;8.23;2.90;;;;;;;25.80;40.92;101228.88;5024211;28;20053;-67
2021/08/14 10:57:56;;;;;;;7.88;2.95;;;;;;;25.88;41.12;101223.44;5023836;28;20359;-67
2021/08/14 11:00:25;;;;;;;10.13;3.28;;;;;;;25.69;41.66;101219.28;5009278;28;20443;-67
2021/08/14 11:03:07;;;;;;;6.53;3.13;;;;;;;25.85;42.13;101226.50;5010416;28;20475;-66
2021/08/14 11:05:35;;;;;;;6.43;3.00;;;;;;;26.04;40.84;101225.22;4984637;28;20198;-68
2021/08/14 11:08:03;;;;;;;7.72;3.33;;;;;;;26.05;41.08;101220.69;4997551;28;20515;-67
2021/08/14 11:10:36;;;;;;;7.18;3.20;;;;;;;25.87;41.53;101210.97;5009285;28;20045;-66
2021/08/14 11:13:36;;;;;;;5.80;2.90;;;;;;;26.26;40.79;101216.34;5008646;28;20050;-67
2021/08/14 11:16:03;;;;;;;6.20;3.90;;;;;;;26.64;39.56;101211.00;5034432;28;20131;-67
2021/08/14 11:18:51;;;;;;;6.75;3.65;;;;;;;27.11;37.74;101201.84;5017185;28;20068;-67
2021/08/14 11:21:44;;;;;;;7.80;2.80;;;;;;;27.08;37.52;101196.78;5005385;28;20493;-67
2021/08/14 11:24:38;;;;;;;6.65;3.25;;;;;;;27.17;36.77;101187.59;4982728;28;20046;-69
2021/08/14 11:27:32;;;;;;;8.45;3.47;;;;;;;26.72;37.21;101186.66;4998658;28;20042;-69